.
WxDataArchive / Data Records for 2009-03-08
2009-03-07 March 2009 2009-03-09

Data Records for Sunday, 08 March 2009

Time	Temp	Chill	HIndex	Humid	Dewpt	 Wind 	HiWind	WindDir	Rain 	Barom 
-----	----	-----	------	-----	-----	------	------	-------	-----	----- 
00:00	48.3	48.3	48.3	96	47.2	0	1	270	0.00	29.921 
00:05	48.3	48.3	48.3	96	47.2	0	0	---	0.00	29.925 
00:10	48.2	48.2	48.2	96	47.1	0	0	---	0.00	29.927 
00:15	48.2	48.2	48.2	96	47.1	0	0	---	0.00	29.928 
00:20	48.2	48.2	48.2	96	47.1	0	0	---	0.00	29.931 
00:25	48.2	48.2	48.2	96	47.1	0	1	270	0.00	29.927 
00:30	48.2	48.2	48.2	96	47.1	0	1	270	0.01	29.919 
00:35	48.2	48.2	48.2	96	47.1	0	1	270	0.00	29.916 
00:40	48.0	48.0	48.0	96	46.9	0	0	---	0.00	29.917 
00:45	48.0	48.0	48.0	96	46.9	0	1	270	0.00	29.918 
00:50	48.0	48.0	48.0	96	46.9	0	1	270	0.00	29.918 
00:55	47.9	47.9	47.9	96	46.8	0	2	270	0.00	29.916 
01:00	47.7	47.7	47.7	96	46.6	0	2	270	0.00	29.911 
01:05	47.7	47.7	47.7	96	46.6	0	1	270	0.00	29.913 
01:10	47.7	47.7	47.7	96	46.6	0	2	270	0.00	29.909 
01:15	47.6	47.6	47.6	96	46.5	0	1	270	0.00	29.913 
01:20	47.4	47.4	47.4	96	46.3	0	1	270	0.01	29.914 
01:25	47.3	47.3	47.3	96	46.2	0	2	270	0.01	29.915 
01:30	47.1	47.1	47.1	96	46.0	0	2	270	0.01	29.913 
01:35	47.1	47.1	47.1	96	46.0	0	2	270	0.01	29.918 
01:40	47.0	47.0	47.0	96	45.9	0	1	270	0.01	29.913 
01:45	46.8	46.8	46.8	96	45.7	0	1	270	0.00	29.919 
01:50	46.5	46.5	46.5	96	45.4	0	1	270	0.00	29.916 
01:55	46.4	46.4	46.4	96	45.3	0	1	270	0.01	29.925 
03:00	46.2	46.2	46.2	96	45.1	0	2	270	0.02	29.928 
03:05	46.1	46.1	46.1	96	45.0	0	2	292	0.03	29.929 
03:10	45.8	45.8	45.8	96	44.7	1	4	338	0.03	29.929 
03:15	45.7	45.7	45.7	96	44.6	0	2	315	0.01	29.929 
03:20	45.4	45.4	45.4	96	44.3	1	3	315	0.02	29.928 
03:25	45.1	45.1	45.1	96	44.0	1	4	0	0.02	29.926 
03:30	44.8	44.8	44.8	96	43.7	1	4	22	0.00	29.918 
03:35	44.5	44.5	44.5	96	43.4	1	4	22	0.01	29.912 
03:40	44.2	44.2	44.2	96	43.1	1	4	135	0.00	29.916 
03:45	44.1	44.1	44.1	96	43.0	0	2	45	0.02	29.916 
03:50	44.1	44.1	44.1	96	43.0	1	4	45	0.02	29.916 
03:55	43.9	43.9	43.9	96	42.8	0	2	45	0.03	29.914 
04:00	43.1	43.1	43.1	96	42.0	2	5	112	0.01	29.887 
04:05	42.8	42.8	42.8	96	41.7	3	7	112	0.00	29.897 
04:10	42.8	42.8	42.8	99	42.5	3	13	112	0.02	29.900 
04:15	42.8	42.8	42.8	96	41.7	2	9	112	0.02	29.894 
04:20	42.6	42.6	42.6	96	41.5	2	6	112	0.01	29.903 
04:25	42.5	42.5	42.5	96	41.4	3	7	90	0.00	29.905 
04:30	42.3	39.2	42.3	96	41.2	5	12	112	0.02	29.893 
04:35	42.3	42.3	42.3	96	41.2	3	6	135	0.00	29.890 
04:40	42.3	42.3	42.3	96	41.2	3	10	112	0.01	29.883 
04:45	42.2	39.9	42.2	96	41.1	4	7	112	0.00	29.887 
04:50	42.2	42.2	42.2	96	41.1	3	6	112	0.00	29.885 
04:55	42.2	39.9	42.2	96	41.1	4	7	112	0.00	29.882 
05:00	42.1	42.1	42.1	96	41.0	3	7	90	0.00	29.885 
05:05	42.1	39.7	42.1	96	41.0	4	10	112	0.00	29.883 
05:10	42.1	39.7	42.1	96	41.0	4	11	90	0.00	29.874 
05:15	42.1	42.1	42.1	96	41.0	2	8	112	0.01	29.882 
05:20	42.1	42.1	42.1	96	41.0	3	8	112	0.01	29.890 
05:25	42.1	42.1	42.1	96	41.0	2	9	112	0.02	29.893 
05:30	42.1	42.1	42.1	96	41.0	1	4	112	0.02	29.904 
05:35	42.1	42.1	42.1	96	41.0	1	4	90	0.03	29.896 
05:40	42.1	42.1	42.1	96	41.0	2	6	112	0.02	29.891 
05:45	42.1	42.1	42.1	96	41.0	2	6	112	0.01	29.889 
05:50	42.1	42.1	42.1	96	41.0	3	7	90	0.02	29.890 
05:55	42.1	42.1	42.1	96	41.0	3	6	90	0.01	29.888 
06:00	41.9	41.9	41.9	96	40.8	3	7	90	0.02	29.875 
06:05	41.9	41.9	41.9	96	40.8	3	8	90	0.01	29.874 
06:10	41.9	39.5	41.9	96	40.8	4	7	90	0.00	29.864 
06:15	41.9	39.5	41.9	96	40.8	4	10	112	0.01	29.864 
06:20	41.9	39.5	41.9	96	40.8	4	7	112	0.00	29.862 
06:25	42.1	42.1	42.1	96	41.0	3	7	90	0.01	29.865 
06:30	42.1	42.1	42.1	96	41.0	3	6	112	0.01	29.867 
06:35	42.2	42.2	42.2	96	41.1	2	5	90	0.01	29.874 
06:40	42.2	42.2	42.2	96	41.1	3	10	112	0.01	29.867 
06:45	42.2	39.9	42.2	96	41.1	4	11	112	0.02	29.859 
06:50	42.2	42.2	42.2	96	41.1	3	7	112	0.00	29.860 
06:55	42.2	42.2	42.2	96	41.1	3	6	112	0.03	29.865 
07:00	42.2	42.2	42.2	96	41.1	3	6	112	0.02	29.859 
07:05	42.3	42.3	42.3	96	41.2	3	7	112	0.02	29.863 
07:10	42.3	40.0	42.3	96	41.2	4	11	112	0.01	29.862 
07:15	42.3	42.3	42.3	96	41.2	3	7	90	0.02	29.864 
07:20	42.3	42.3	42.3	96	41.2	3	10	112	0.01	29.863 
07:25	42.3	42.3	42.3	96	41.2	2	9	112	0.01	29.878 
07:30	42.3	42.3	42.3	96	41.2	2	4	112	0.02	29.877 
07:35	42.3	42.3	42.3	96	41.2	1	5	68	0.02	29.886 
07:40	42.3	42.3	42.3	97	41.5	1	4	68	0.01	29.897 
07:45	42.3	42.3	42.3	97	41.5	1	4	112	0.03	29.893 
07:50	42.3	42.3	42.3	96	41.2	2	4	112	0.02	29.880 
07:55	42.3	42.3	42.3	96	41.2	3	6	112	0.02	29.877 
08:00	42.2	42.2	42.2	97	41.4	3	10	112	0.02	29.877 
08:05	42.2	42.2	42.2	97	41.4	2	9	90	0.01	29.885 
08:10	42.2	42.2	42.2	97	41.4	2	6	112	0.01	29.883 
08:15	42.2	42.2	42.2	97	41.4	3	12	112	0.02	29.884 
08:20	42.2	39.9	42.2	97	41.4	4	10	112	0.01	29.881 
08:25	42.2	39.9	42.2	97	41.4	4	11	112	0.02	29.874 
08:30	42.1	39.7	42.1	97	41.3	4	12	112	0.02	29.869 
08:35	42.1	39.7	42.1	97	41.3	4	9	90	0.01	29.858 
08:40	42.1	39.7	42.1	97	41.3	4	8	90	0.02	29.846 
08:45	42.1	39.7	42.1	97	41.3	4	9	112	0.02	29.858 
08:50	42.1	39.7	42.1	97	41.3	4	10	112	0.01	29.855 
08:55	42.1	38.9	42.1	97	41.3	5	8	112	0.01	29.852 
09:00	42.1	38.9	42.1	97	41.3	5	9	112	0.03	29.852 
09:05	42.2	39.9	42.2	97	41.4	4	10	90	0.03	29.842 
09:10	42.2	39.1	42.2	97	41.4	5	14	112	0.02	29.837 
09:15	42.2	39.1	42.2	97	41.4	5	12	90	0.00	29.853 
09:20	42.2	42.2	42.2	97	41.4	2	9	90	0.00	29.865 
09:25	42.2	42.2	42.2	97	41.4	0	4	112	0.01	29.888 
09:30	42.3	42.3	42.3	97	41.5	0	2	112	0.01	29.899 
09:35	42.3	42.3	42.3	97	41.5	1	3	0	0.03	29.899 
09:40	42.3	42.3	42.3	97	41.5	1	3	0	0.02	29.891 
09:45	42.3	42.3	42.3	97	41.5	2	5	22	0.03	29.872 
09:50	42.3	42.3	42.3	97	41.5	3	9	112	0.02	29.861 
09:55	42.3	42.3	42.3	97	41.5	2	7	112	0.01	29.858 
10:00	42.3	42.3	42.3	97	41.5	1	3	112	0.01	29.864 
10:05	42.3	40.0	42.3	97	41.5	4	10	112	0.01	29.849 
10:10	42.3	37.4	42.3	97	41.5	8	15	112	0.01	29.836 
10:15	42.3	37.9	42.3	97	41.5	7	14	112	0.01	29.829 
10:20	42.3	38.5	42.3	97	41.5	6	13	90	0.01	29.826 
10:25	42.3	37.9	42.3	97	41.5	7	13	112	0.00	29.813 
10:30	42.3	38.5	42.3	97	41.5	6	11	90	0.01	29.826 
10:35	42.5	42.5	42.5	97	41.7	3	6	90	0.02	29.821 
10:40	42.6	40.3	42.6	97	41.8	4	10	112	0.00	29.823 
10:45	42.6	40.3	42.6	97	41.8	4	7	112	0.01	29.815 
10:50	42.8	39.8	42.8	97	42.0	5	10	112	0.00	29.813 
10:55	42.9	39.2	42.9	97	42.1	6	13	90	0.01	29.801 
11:00	42.9	38.6	42.9	97	42.1	7	14	90	0.00	29.794 
11:05	43.1	40.1	43.1	97	42.3	5	9	90	0.00	29.809 
11:10	43.1	40.1	43.1	97	42.3	5	11	112	0.00	29.811 
11:15	43.1	39.5	43.1	97	42.3	6	11	112	0.00	29.809 
11:20	43.1	38.9	43.1	97	42.3	7	13	90	0.00	29.795 
11:25	43.1	39.5	43.1	97	42.3	6	11	112	0.00	29.796 
11:30	43.1	43.1	43.1	97	42.3	3	7	90	0.00	29.798 
11:35	43.2	41.0	43.2	97	42.4	4	9	90	0.00	29.794 
11:40	43.2	40.2	43.2	97	42.4	5	10	90	0.00	29.794 
11:45	43.2	41.0	43.2	97	42.4	4	10	90	0.00	29.791 
11:50	43.3	40.3	43.3	97	42.5	5	9	112	0.00	29.782 
11:55	43.2	41.0	43.2	97	42.4	4	9	112	0.01	29.784 
12:00	43.2	43.2	43.2	97	42.4	3	7	90	0.00	29.789 
12:05	43.2	40.2	43.2	97	42.4	5	10	90	0.00	29.786 
12:10	43.2	41.0	43.2	97	42.4	4	10	90	0.00	29.777 
12:15	43.2	41.0	43.2	97	42.4	4	7	90	0.00	29.775 
12:20	43.2	40.2	43.2	97	42.4	5	11	112	0.04	29.762 
12:25	43.2	41.0	43.2	97	42.4	4	7	90	0.00	29.762 
12:30	43.3	41.1	43.3	97	42.5	4	9	90	0.01	29.755 
12:35	43.3	41.1	43.3	97	42.5	4	11	90	0.00	29.758 
12:40	43.3	43.3	43.3	97	42.5	3	6	90	0.01	29.760 
12:45	43.5	39.9	43.5	97	42.7	6	11	90	0.00	29.744 
12:50	43.6	39.5	43.6	97	42.8	7	13	90	0.00	29.737 
12:55	43.8	39.7	43.8	97	43.0	7	13	90	0.00	29.728 
13:00	43.6	43.6	43.6	97	42.8	3	12	90	0.00	29.738 
13:05	43.6	43.6	43.6	97	42.8	3	6	90	0.00	29.733 
13:10	43.6	40.7	43.6	97	42.8	5	10	90	0.00	29.729 
13:15	43.6	40.0	43.6	97	42.8	6	11	90	0.00	29.721 
13:20	43.8	40.9	43.8	97	43.0	5	12	90	0.00	29.715 
13:25	43.8	40.9	43.8	97	43.0	5	10	90	0.03	29.713 
13:30	43.8	40.9	43.8	97	43.0	5	11	112	0.00	29.709 
13:35	43.8	41.7	43.8	97	43.0	4	9	112	0.00	29.703 
13:40	43.8	41.7	43.8	97	43.0	4	9	112	0.00	29.701 
13:45	43.8	40.9	43.8	97	43.0	5	11	90	0.00	29.692 
13:50	43.9	43.9	43.9	97	43.1	3	6	90	0.00	29.688 
13:55	44.1	40.6	44.1	97	43.3	6	10	90	0.01	29.683 
14:00	44.5	41.1	44.5	97	43.7	6	13	90	0.00	29.668 
14:05	44.6	41.2	44.6	97	43.8	6	12	90	0.00	29.661 
14:10	45.1	43.2	45.1	97	44.3	4	9	112	0.00	29.659 
14:15	46.5	43.0	46.5	97	45.7	7	16	112	0.00	29.651 
14:20	47.0	43.6	47.0	97	46.2	7	16	112	0.00	29.649 
14:25	46.7	43.7	46.7	97	45.9	6	12	112	0.00	29.636 
14:30	46.5	44.8	46.5	97	45.7	4	12	112	0.00	29.639 
14:35	46.4	46.4	46.4	97	45.6	1	3	248	0.00	29.650 
14:40	46.5	46.5	46.5	97	45.7	3	5	90	0.00	29.641 
14:45	46.5	44.8	46.5	97	45.7	4	11	90	0.00	29.633 
14:50	46.7	45.1	46.7	97	45.9	4	7	112	0.00	29.622 
14:55	47.0	45.4	47.0	97	46.2	4	10	112	0.00	29.619 
15:00	47.1	47.1	47.1	97	46.3	3	6	112	0.00	29.620 
15:05	47.3	45.8	47.3	97	46.5	4	9	112	0.00	29.618 
15:10	47.4	47.4	47.4	97	46.6	3	5	112	0.00	29.618 
15:15	47.4	47.4	47.4	97	46.6	3	6	90	0.00	29.610 
15:20	47.7	47.7	47.7	97	46.9	3	5	112	0.00	29.604 
15:25	48.2	46.8	48.2	98	47.7	4	7	90	0.00	29.597 
15:30	48.5	48.5	48.5	98	48.0	3	7	90	0.00	29.590 
15:35	48.8	48.8	48.8	98	48.3	3	6	90	0.00	29.587 
15:40	49.4	49.4	49.4	98	48.9	3	5	112	0.00	29.586 
15:45	49.9	49.9	49.9	98	49.4	3	5	112	0.00	29.579 
15:50	50.7	50.7	50.7	98	50.2	3	7	90	0.00	29.575 
15:55	51.1	51.1	51.1	98	50.6	2	5	112	0.00	29.573 
16:00	51.7	51.7	51.7	98	51.2	2	5	112	0.00	29.565 
16:05	52.6	52.6	52.6	98	52.0	2	5	112	0.00	29.560 
16:10	53.5	53.5	53.5	98	52.9	2	4	90	0.00	29.555 
16:15	54.2	54.2	54.2	98	53.6	2	4	90	0.00	29.550 
16:20	55.1	55.1	55.1	98	54.5	2	6	90	0.00	29.549 
16:25	58.0	58.0	58.0	98	57.4	4	10	90	0.00	29.542 
16:30	59.2	59.2	59.2	98	58.6	6	13	90	0.00	29.530 
16:35	59.5	59.5	59.5	98	58.9	5	12	90	0.00	29.526 
16:40	56.5	56.5	56.5	97	55.7	8	15	248	0.05	29.585 
16:45	55.0	55.0	55.0	96	53.9	6	15	248	0.10	29.583 
16:50	54.5	54.5	54.5	96	53.4	8	18	270	0.09	29.564 
16:55	55.3	55.3	55.3	96	54.2	7	16	248	0.00	29.559 
17:00	56.3	56.3	56.3	96	55.2	4	9	270	0.00	29.554 
17:05	56.9	56.9	56.9	94	55.2	5	12	248	0.00	29.556 
17:10	57.5	57.5	57.5	92	55.2	4	11	248	0.00	29.560 
17:15	58.7	58.7	58.7	86	54.5	6	18	270	0.00	29.555 
17:20	59.9	59.9	59.9	80	53.7	7	13	270	0.00	29.560 
17:25	61.2	61.2	61.2	75	53.2	6	13	270	0.00	29.563 
17:30	62.0	62.0	62.0	67	50.9	7	19	270	0.00	29.563 
17:35	62.1	62.1	62.1	65	50.2	6	14	270	0.00	29.569 
17:40	62.0	62.0	62.0	64	49.7	5	11	270	0.00	29.576 
17:45	61.8	61.8	61.8	62	48.6	6	13	270	0.00	29.580 
17:50	61.3	61.3	61.3	58	46.4	6	13	270	0.00	29.583 
17:55	61.0	61.0	61.0	55	44.7	8	18	248	0.00	29.590 
18:00	60.7	60.7	60.7	53	43.5	8	19	270	0.00	29.594 
18:05	60.4	60.4	60.4	53	43.2	9	20	270	0.00	29.596 
18:10	59.9	59.9	59.9	53	42.7	8	19	270	0.00	29.597 
18:15	59.8	59.8	59.8	53	42.6	12	26	270	0.00	29.610 
18:20	59.3	59.3	59.3	54	42.7	10	20	270	0.00	29.610 
18:25	58.9	58.9	58.9	56	43.2	7	14	270	0.00	29.610 
18:30	58.6	58.6	58.6	58	43.9	8	18	270	0.00	29.623 
18:35	58.1	58.1	58.1	59	43.8	8	21	270	0.00	29.623 
18:40	57.8	57.8	57.8	59	43.6	5	12	270	0.00	29.623 
18:45	57.3	57.3	57.3	60	43.5	7	14	270	0.00	29.630 
18:50	57.0	57.0	57.0	61	43.7	7	14	270	0.00	29.630 
18:55	56.6	56.6	56.6	62	43.7	8	16	270	0.00	29.630 
19:00	56.0	56.0	56.0	62	43.2	10	22	270	0.00	29.647 
19:05	55.4	55.4	55.4	64	43.4	8	19	270	0.00	29.647 
19:10	55.1	55.1	55.1	65	43.5	6	18	270	0.00	29.647 
19:15	54.7	54.7	54.7	66	43.6	7	15	270	0.00	29.648 
19:20	54.4	54.4	54.4	67	43.7	7	17	270	0.00	29.648 
19:25	54.4	54.4	54.4	67	43.7	7	15	270	0.00	29.648 
19:30	54.1	54.1	54.1	68	43.8	7	21	270	0.00	29.644 
19:35	53.9	53.9	53.9	67	43.2	7	18	270	0.00	29.644 
19:40	53.6	53.6	53.6	68	43.3	4	15	270	0.00	29.644 
19:45	53.5	53.5	53.5	69	43.6	7	16	270	0.00	29.651 
19:50	53.5	53.5	53.5	69	43.6	7	17	270	0.00	29.651 
19:55	53.3	53.3	53.3	70	43.8	6	15	270	0.00	29.651 
20:00	53.3	53.3	53.3	71	44.1	6	14	270	0.00	29.663 
20:05	53.2	53.2	53.2	71	44.0	5	11	270	0.00	29.664 
20:10	53.2	53.2	53.2	70	43.7	7	14	270	0.00	29.664 
20:15	53.2	53.2	53.2	69	43.3	7	14	270	0.00	29.665 
20:20	53.1	53.1	53.1	69	43.2	6	19	270	0.00	29.671 
20:25	52.9	52.9	52.9	69	43.0	8	17	270	0.00	29.671 
20:30	52.8	52.8	52.8	69	42.9	9	20	248	0.00	29.673 
20:35	52.6	52.6	52.6	69	42.7	9	23	270	0.00	29.680 
20:40	52.5	52.5	52.5	70	43.0	7	15	270	0.00	29.680 
20:45	52.3	52.3	52.3	72	43.5	7	20	270	0.00	29.685 
20:50	51.7	51.7	51.7	73	43.3	7	18	270	0.00	29.692 
20:55	51.0	51.0	51.0	73	42.7	9	20	270	0.00	29.697 
21:00	50.5	50.5	50.5	74	42.5	7	14	270	0.00	29.697 
21:05	50.2	50.2	50.2	75	42.6	5	11	270	0.00	29.698 
21:10	49.8	46.9	49.8	76	42.5	7	22	270	0.00	29.704 
21:15	49.5	46.6	49.5	73	41.2	7	22	270	0.00	29.708 
21:20	49.1	44.9	49.1	73	40.8	10	25	270	0.00	29.711 
21:25	48.6	44.7	48.6	73	40.3	9	19	270	0.00	29.716 
21:30	48.2	44.2	48.2	73	40.0	9	22	270	0.00	29.729 
21:35	47.7	43.2	47.7	73	39.5	10	19	270	0.00	29.730 
21:40	47.6	44.3	47.6	74	39.7	7	16	270	0.00	29.730 
21:45	47.3	42.7	47.3	74	39.4	10	25	270	0.00	29.735 
21:50	47.1	44.2	47.1	74	39.2	6	13	270	0.00	29.735 
21:55	46.8	43.3	46.8	75	39.3	7	18	270	0.00	29.745 
22:00	46.7	42.3	46.7	75	39.2	9	17	270	0.00	29.745 
22:05	46.2	41.7	46.2	75	38.7	9	20	270	0.00	29.742 
22:10	46.0	41.9	46.0	76	38.9	8	18	270	0.00	29.747 
22:15	45.8	42.1	45.8	76	38.7	7	14	270	0.00	29.744 
22:20	45.5	41.8	45.5	77	38.7	7	14	270	0.00	29.748 
22:25	45.4	42.2	45.4	77	38.6	6	15	270	0.00	29.752 
22:30	45.1	40.4	45.1	77	38.3	9	20	270	0.00	29.762 
22:35	44.8	39.6	44.8	77	38.0	10	27	270	0.00	29.764 
22:40	44.5	40.6	44.5	80	38.7	7	14	270	0.00	29.764 
22:45	44.1	40.6	44.1	82	39.0	6	16	270	0.00	29.770 
22:50	43.8	39.2	43.8	83	39.0	8	20	270	0.00	29.776 
22:55	43.6	40.0	43.6	83	38.8	6	15	270	0.00	29.775 
23:00	43.6	40.0	43.6	81	38.2	6	16	270	0.00	29.783 
23:05	43.6	38.5	43.6	75	36.2	9	20	270	0.00	29.791 
23:10	43.5	39.4	43.5	74	35.8	7	15	270	0.00	29.798 
23:15	43.1	38.4	43.1	75	35.7	8	12	270	0.00	29.801 
23:20	42.5	39.4	42.5	76	35.5	5	10	270	0.00	29.810 
23:25	42.1	38.3	42.1	77	35.4	6	14	270	0.00	29.814 
23:30	41.5	37.5	41.5	80	35.8	6	12	270	0.00	29.815 
23:35	41.1	36.5	41.1	82	36.0	7	15	270	0.00	29.819 
23:40	40.5	37.1	40.5	83	35.8	5	13	270	0.00	29.830 
23:45	40.1	35.9	40.1	83	35.4	6	13	270	0.00	29.838 
23:50	39.8	36.2	39.8	83	35.1	5	10	270	0.00	29.844 
23:55	39.6	36.0	39.6	83	34.9	5	11	270	0.00	29.847 
20090309 00:00	39.5	34.0	39.5	81	34.2	8	16	270	0.00	29.852 
20090309 00:05	39.3	33.7	39.3	79	33.3	8	14	270	0.00	29.858 
20090309 00:10	39.1	33.5	39.1	78	32.8	8	16	270	0.00	29.865 
20090309 00:15	38.8	33.7	38.8	78	32.5	7	18	270	0.00	29.866 
20090309 00:20	38.5	33.3	38.5	78	32.2	7	12	270	0.00	29.870 
20090309 00:25	38.2	32.4	38.2	77	31.6	8	14	270	0.00	29.877 
20090309 00:30	37.9	33.3	37.9	77	31.3	6	13	270	0.00	29.881 
20090309 00:35	37.8	34.8	37.8	77	31.2	4	12	270	0.00	29.880 
20090309 00:40	37.6	33.7	37.6	78	31.4	5	11	270	0.00	29.881 
20090309 00:45	37.5	32.8	37.5	78	31.3	6	15	270	0.00	29.885 
20090309 00:50	37.3	31.9	37.3	77	30.8	7	12	270	0.00	29.893 
20090309 00:55	37.2	32.4	37.2	77	30.7	6	12	270	0.00	29.901 

CoCoRaHS
IN-AL-39
A2 Web Hosting
Creative Commons License
GoDaddy
search engine by freefind advanced

loaded 2018-11-14 00:27:42 • last modified 2010-11-18 10:43:29
Privacy PolicyDisclaimer
• wx.awcolley.com is powered by PmWiki v.2002016 •
• all content (unless otherwise noted) © 2018 A W Colley